createdAt,value
2018-07-05T00:01:30.816Z,1.37
2018-07-05T00:04:05.198Z,1.30
2018-07-05T00:06:39.775Z,1.10
2018-07-05T00:09:13.688Z,1.13
2018-07-05T00:11:48.028Z,1.23
2018-07-05T00:14:22.428Z,1.20
2018-07-05T00:16:56.660Z,1.30
2018-07-05T00:19:30.994Z,1.40
2018-07-05T00:22:05.630Z,1.20
2018-07-05T00:24:40.103Z,1.00
2018-07-05T00:27:14.624Z,1.30
2018-07-05T00:29:48.983Z,1.20
2018-07-05T00:32:23.695Z,1.77
2018-07-05T00:34:58.669Z,1.20
2018-07-05T00:37:33.140Z,1.40
2018-07-05T00:40:08.499Z,1.40
2018-07-05T00:42:43.111Z,1.50
2018-07-05T00:45:17.467Z,1.27
2018-07-05T00:47:51.785Z,1.50
2018-07-05T00:50:26.513Z,1.30
2018-07-05T00:53:01.141Z,1.20
2018-07-05T00:55:35.219Z,1.30
2018-07-05T00:58:09.276Z,1.07
2018-07-05T01:00:43.568Z,1.00
2018-07-05T01:03:17.700Z,1.20
2018-07-05T01:05:52.072Z,1.40
2018-07-05T01:08:26.418Z,1.30
2018-07-05T01:11:00.635Z,1.10
2018-07-05T01:13:35.851Z,1.30
2018-07-05T01:16:10.665Z,1.33
2018-07-05T01:18:44.868Z,1.43
2018-07-05T01:21:19.062Z,1.20
2018-07-05T01:23:54.193Z,1.20
2018-07-05T01:26:28.646Z,1.30
2018-07-05T01:29:02.920Z,1.20
2018-07-05T01:31:37.896Z,1.00
2018-07-05T01:34:12.271Z,1.40
2018-07-05T01:36:47.164Z,1.10
2018-07-05T01:39:21.607Z,1.07
2018-07-05T01:41:56.061Z,1.00
2018-07-05T01:44:30.802Z,1.30
2018-07-05T01:47:05.191Z,1.50
2018-07-05T01:49:39.680Z,1.30
2018-07-05T01:52:13.800Z,1.40
2018-07-05T01:54:47.684Z,1.27
2018-07-05T01:57:22.059Z,1.27
2018-07-05T01:59:56.520Z,1.47
2018-07-05T02:02:31.168Z,1.43
2018-07-05T02:05:06.107Z,1.40
2018-07-05T02:07:40.500Z,1.40
2018-07-05T02:10:14.931Z,1.43
2018-07-05T02:12:49.016Z,1.40
2018-07-05T02:15:23.584Z,1.30
2018-07-05T02:17:57.823Z,1.37
2018-07-05T02:20:32.260Z,1.33
2018-07-05T02:23:06.743Z,1.43
2018-07-05T02:25:41.300Z,1.50
2018-07-05T02:28:15.823Z,1.60
2018-07-05T02:30:50.107Z,1.30
2018-07-05T02:33:24.688Z,1.30
2018-07-05T02:35:59.110Z,1.30
2018-07-05T02:38:33.692Z,1.20
2018-07-05T02:41:07.844Z,1.37
2018-07-05T02:43:42.227Z,1.30
2018-07-05T02:46:16.772Z,1.57
2018-07-05T02:48:50.900Z,1.50
2018-07-05T02:51:25.240Z,1.47
2018-07-05T02:53:59.732Z,1.90
2018-07-05T02:56:34.166Z,1.40
2018-07-05T02:59:08.045Z,1.40
2018-07-05T03:01:42.183Z,1.47
2018-07-05T03:04:16.880Z,1.60
2018-07-05T03:06:51.460Z,1.50
2018-07-05T03:09:25.844Z,1.40
2018-07-05T03:12:00.290Z,1.43
2018-07-05T03:14:35.656Z,1.50
2018-07-05T03:17:09.979Z,1.73
2018-07-05T03:19:44.431Z,1.40
2018-07-05T03:22:19.029Z,1.17
2018-07-05T03:24:53.503Z,1.50
2018-07-05T03:27:27.852Z,1.40
2018-07-05T03:30:02.006Z,1.53
2018-07-05T03:32:36.963Z,1.30
2018-07-05T03:35:11.818Z,1.27
2018-07-05T03:37:46.168Z,1.60
2018-07-05T03:40:20.948Z,1.67
2018-07-05T03:42:55.491Z,1.80
2018-07-05T03:45:30.352Z,1.63
2018-07-05T03:48:04.643Z,2.07
2018-07-05T03:50:38.615Z,1.77
2018-07-05T03:53:13.228Z,1.70
2018-07-05T03:55:48.455Z,2.10
2018-07-05T03:58:22.843Z,2.20
2018-07-05T04:00:57.468Z,1.80
2018-07-05T04:03:31.889Z,2.80
2018-07-05T04:06:07.426Z,2.27
2018-07-05T04:08:41.624Z,2.63
2018-07-05T04:11:16.211Z,4.23
2018-07-05T04:13:50.632Z,3.83
2018-07-05T04:16:25.196Z,3.80
2018-07-05T04:18:59.655Z,2.93
2018-07-05T04:21:34.038Z,3.43
2018-07-05T04:24:08.315Z,3.47
2018-07-05T04:26:42.775Z,3.00
2018-07-05T04:29:17.357Z,2.30
2018-07-05T04:31:51.612Z,2.00
2018-07-05T04:34:26.072Z,1.63
2018-07-05T04:37:00.675Z,1.80
2018-07-05T04:39:35.117Z,1.97
2018-07-05T04:42:10.076Z,1.40
2018-07-05T04:44:44.545Z,1.80
2018-07-05T04:47:18.680Z,1.57
2018-07-05T04:49:53.835Z,1.53
2018-07-05T04:52:28.064Z,1.83
2018-07-05T04:55:02.659Z,1.93
2018-07-05T04:57:37.266Z,1.50
2018-07-05T05:00:11.576Z,1.60
2018-07-05T05:02:45.821Z,1.83
2018-07-05T05:05:20.224Z,1.60
2018-07-05T05:07:56.687Z,1.80
2018-07-05T05:10:31.116Z,1.47
2018-07-05T05:13:05.733Z,1.40
2018-07-05T05:15:40.676Z,1.80
2018-07-05T05:18:15.093Z,1.40
2018-07-05T05:20:50.363Z,1.40
2018-07-05T05:23:24.448Z,1.50
2018-07-05T05:25:59.692Z,1.60
2018-07-05T05:28:34.104Z,1.40
2018-07-05T05:31:09.481Z,1.37
2018-07-05T05:33:43.876Z,1.70
2018-07-05T05:36:18.359Z,1.57
2018-07-05T05:38:53.159Z,1.70
2018-07-05T05:41:27.576Z,1.33
2018-07-05T05:44:02.494Z,1.20
2018-07-05T05:46:36.801Z,1.20
2018-07-05T05:49:11.313Z,1.33
2018-07-05T05:51:46.276Z,1.47
2018-07-05T05:54:20.912Z,1.13
2018-07-05T05:56:55.217Z,1.33
2018-07-05T05:59:29.621Z,1.27
2018-07-05T06:02:04.494Z,1.40
2018-07-05T06:04:39.085Z,1.87
2018-07-05T06:07:13.512Z,1.47
2018-07-05T06:09:48.052Z,1.60
2018-07-05T06:12:22.263Z,1.40
2018-07-05T06:14:56.588Z,1.27
2018-07-05T06:17:31.024Z,1.10
2018-07-05T06:20:05.632Z,1.30
2018-07-05T06:22:39.759Z,1.10
2018-07-05T06:25:14.065Z,1.20
2018-07-05T06:27:48.087Z,1.33
2018-07-05T06:30:22.230Z,1.40
2018-07-05T06:32:56.760Z,1.20
2018-07-05T06:35:31.887Z,1.20
2018-07-05T06:38:06.200Z,1.40
2018-07-05T06:40:40.860Z,1.33
2018-07-05T06:43:15.450Z,1.30
2018-07-05T06:45:49.718Z,1.20
2018-07-05T06:48:23.840Z,1.37
2018-07-05T06:50:58.272Z,1.50
2018-07-05T06:53:32.761Z,1.47
2018-07-05T06:56:06.755Z,1.30
2018-07-05T06:58:41.363Z,1.20
2018-07-05T07:01:15.719Z,1.17
2018-07-05T07:03:51.044Z,0.97
2018-07-05T07:06:25.587Z,1.20
2018-07-05T07:08:59.656Z,1.10
2018-07-05T07:11:33.685Z,1.10
2018-07-05T07:14:08.232Z,1.17
2018-07-05T07:16:43.603Z,1.37
2018-07-05T07:19:17.999Z,1.43
2018-07-05T07:21:52.624Z,1.33
2018-07-05T07:24:27.120Z,1.83
2018-07-05T07:27:01.476Z,1.43
2018-07-05T07:29:35.328Z,1.30
2018-07-05T07:32:09.835Z,1.20
2018-07-05T07:34:44.168Z,1.20
2018-07-05T07:37:18.609Z,1.30
2018-07-05T07:39:53.123Z,1.03
2018-07-05T07:42:21.307Z,1.30
2018-07-05T07:44:49.468Z,1.07
2018-07-05T07:47:17.697Z,1.00
2018-07-05T07:49:46.183Z,1.10
2018-07-05T07:52:14.589Z,1.10
2018-07-05T07:54:42.708Z,1.60
2018-07-05T07:57:10.672Z,1.50
2018-07-05T07:59:41.896Z,1.00
2018-07-05T08:02:10.089Z,1.30
2018-07-05T08:04:38.944Z,1.73
2018-07-05T08:07:07.736Z,1.47
2018-07-05T08:09:35.464Z,1.40
2018-07-05T08:12:03.516Z,1.37
2018-07-05T08:14:31.577Z,1.00
2018-07-05T08:16:59.640Z,1.43
2018-07-05T08:19:27.605Z,1.17
2018-07-05T08:21:55.681Z,1.20
2018-07-05T08:24:23.571Z,1.10
2018-07-05T08:26:52.083Z,1.47
2018-07-05T08:29:20.008Z,1.40
2018-07-05T08:31:48.157Z,1.30
2018-07-05T08:34:16.516Z,1.30
2018-07-05T08:36:44.332Z,1.50
2018-07-05T08:39:12.935Z,1.23
2018-07-05T08:41:41.313Z,1.43
2018-07-05T08:44:09.980Z,1.40
2018-07-05T08:46:38.391Z,1.40
2018-07-05T08:49:07.144Z,1.40
2018-07-05T08:51:34.975Z,1.43
2018-07-05T08:54:03.004Z,1.60
2018-07-05T08:56:31.168Z,1.40
2018-07-05T08:58:59.380Z,1.17
2018-07-05T09:01:28.285Z,1.43
2018-07-05T09:03:56.153Z,1.40
2018-07-05T09:06:24.336Z,1.30
2018-07-05T09:08:52.476Z,2.23
2018-07-05T09:11:20.590Z,1.33
2018-07-05T09:13:48.968Z,1.60
2018-07-05T09:16:18.498Z,1.40
2018-07-05T09:18:46.388Z,1.27
2018-07-05T09:21:14.420Z,1.60
2018-07-05T09:23:42.967Z,1.60
2018-07-05T09:26:11.497Z,1.30
2018-07-05T09:28:39.688Z,1.37
2018-07-05T09:31:08.296Z,1.57
2018-07-05T09:33:37.103Z,1.73
2018-07-05T09:36:06.060Z,1.80
2018-07-05T09:38:34.163Z,1.70
2018-07-05T09:41:02.367Z,1.60
2018-07-05T09:43:30.515Z,1.55
2018-07-05T09:45:58.976Z,1.30
2018-07-05T09:48:27.360Z,1.30
2018-07-05T09:50:55.719Z,2.47
2018-07-05T09:53:23.822Z,1.32
2018-07-05T09:55:52.307Z,1.30
2018-07-05T09:58:20.898Z,1.85
2018-07-05T10:00:52.450Z,1.55
2018-07-05T10:03:22.387Z,1.47
2018-07-05T10:05:50.648Z,1.20
2018-07-05T10:08:20.385Z,1.55
2018-07-05T10:10:49.264Z,1.40
2018-07-05T10:13:17.615Z,1.30
2018-07-05T10:15:45.919Z,1.35
2018-07-05T10:18:14.052Z,1.50
2018-07-05T10:20:42.356Z,1.30
2018-07-05T10:23:10.867Z,1.12
2018-07-05T10:25:40.688Z,1.27
2018-07-05T10:28:09.224Z,1.60
2018-07-05T10:30:43.557Z,1.37
2018-07-05T10:33:18.072Z,1.55
2018-07-05T10:35:46.728Z,1.32
2018-07-05T10:38:14.528Z,1.40
2018-07-05T10:40:48.924Z,1.30
2018-07-05T10:43:23.824Z,1.30
2018-07-05T10:45:57.911Z,1.27
2018-07-05T10:48:32.704Z,1.40
2018-07-05T10:51:07.112Z,1.40
2018-07-05T10:53:41.716Z,1.40
2018-07-05T10:56:16.246Z,1.50
2018-07-05T10:58:50.875Z,1.30
2018-07-05T11:01:25.615Z,1.40
2018-07-05T11:03:59.853Z,2.22
2018-07-05T11:06:34.252Z,1.40
2018-07-05T11:09:08.776Z,1.40
2018-07-05T11:11:44.456Z,1.30
2018-07-05T11:14:19.094Z,1.10
2018-07-05T11:16:53.365Z,1.30
2018-07-05T11:19:27.763Z,1.30
2018-07-05T11:22:03.092Z,1.50
2018-07-05T11:24:37.452Z,1.42
2018-07-05T11:27:15.969Z,1.42
2018-07-05T11:29:50.160Z,1.30
2018-07-05T11:32:24.608Z,1.22
2018-07-05T11:34:58.928Z,1.45
2018-07-05T11:37:33.596Z,1.22
2018-07-05T11:40:07.855Z,1.30
2018-07-05T11:42:42.582Z,1.57
2018-07-05T11:45:16.992Z,1.22
2018-07-05T11:47:51.327Z,1.15
2018-07-05T11:50:26.075Z,1.35
2018-07-05T11:53:01.303Z,2.00
2018-07-05T11:55:35.528Z,1.20
2018-07-05T11:58:09.992Z,2.00
2018-07-05T12:00:44.142Z,1.27
2018-07-05T12:03:18.144Z,1.45
2018-07-05T12:05:52.500Z,1.20
2018-07-05T12:08:27.090Z,1.25
2018-07-05T12:11:01.354Z,1.30
2018-07-05T12:13:36.151Z,1.57
2018-07-05T12:16:10.683Z,1.40
2018-07-05T12:18:45.184Z,1.32
2018-07-05T12:21:19.628Z,1.30
2018-07-05T12:23:54.177Z,1.42
2018-07-05T12:26:28.112Z,1.40
2018-07-05T12:29:02.384Z,1.60
2018-07-05T12:31:36.799Z,1.55
2018-07-05T12:34:10.916Z,1.60
2018-07-05T12:36:44.865Z,1.67
2018-07-05T12:39:20.192Z,1.35
2018-07-05T12:41:54.027Z,1.45
2018-07-05T12:44:28.423Z,1.25
2018-07-05T12:47:02.700Z,1.27
2018-07-05T12:49:36.992Z,1.30
2018-07-05T12:52:11.356Z,1.20
2018-07-05T12:54:45.643Z,1.35
2018-07-05T12:57:20.170Z,1.30
2018-07-05T12:59:54.120Z,1.25
2018-07-05T13:02:28.703Z,1.60
2018-07-05T13:05:02.850Z,2.08
2018-07-05T13:07:37.447Z,1.60
2018-07-05T13:10:12.299Z,1.30
2018-07-05T13:12:47.008Z,1.37
2018-07-05T13:15:21.480Z,1.50
2018-07-05T13:17:55.580Z,1.40
2018-07-05T13:20:30.200Z,1.40
2018-07-05T13:23:04.711Z,1.27
2018-07-05T13:25:39.552Z,1.50
2018-07-05T13:28:13.883Z,1.42
2018-07-05T13:30:48.056Z,1.12
2018-07-05T13:33:22.652Z,1.40
2018-07-05T13:35:57.096Z,1.30
2018-07-05T13:38:31.856Z,1.22
2018-07-05T13:41:05.916Z,1.50
2018-07-05T13:43:40.182Z,1.52
2018-07-05T13:46:14.448Z,1.30
2018-07-05T13:48:49.638Z,1.10
2018-07-05T13:51:24.874Z,1.35
2018-07-05T13:53:59.117Z,1.20
2018-07-05T13:56:34.648Z,1.40
2018-07-05T13:59:09.079Z,1.20
2018-07-05T14:01:43.547Z,1.20
2018-07-05T14:04:18.243Z,1.25
2018-07-05T14:06:52.507Z,1.55
2018-07-05T14:09:27.053Z,1.27
2018-07-05T14:12:01.620Z,1.50
2018-07-05T14:14:35.528Z,1.67
2018-07-05T14:17:09.837Z,1.30
2018-07-05T14:19:44.471Z,1.17
2018-07-05T14:22:18.927Z,1.57
2018-07-05T14:24:53.156Z,1.20
2018-07-05T14:27:27.437Z,1.20
2018-07-05T14:30:02.504Z,1.30
2018-07-05T14:32:36.771Z,1.52
2018-07-05T14:35:11.923Z,1.32
2018-07-05T14:37:47.343Z,1.20
2018-07-05T14:40:21.630Z,1.22
2018-07-05T14:42:56.120Z,1.30
2018-07-05T14:45:30.596Z,1.40
2018-07-05T14:48:04.668Z,1.42
2018-07-05T14:50:38.692Z,1.32
2018-07-05T14:53:13.339Z,1.35
2018-07-05T14:55:47.995Z,1.35
2018-07-05T14:58:23.429Z,1.40
2018-07-05T15:00:57.955Z,1.30
2018-07-05T15:03:32.562Z,1.20
2018-07-05T15:06:07.082Z,1.30
2018-07-05T15:08:41.228Z,1.27
2018-07-05T15:11:15.620Z,1.20
2018-07-05T15:13:49.936Z,1.40
2018-07-05T15:16:24.404Z,1.40
2018-07-05T15:18:59.019Z,1.40
2018-07-05T15:21:33.180Z,1.30
2018-07-05T15:24:07.849Z,1.30
2018-07-05T15:26:42.410Z,1.20
2018-07-05T15:29:16.805Z,1.12
2018-07-05T15:31:50.900Z,1.40
2018-07-05T15:34:24.939Z,1.47
2018-07-05T15:36:59.132Z,1.40
2018-07-05T15:39:33.588Z,1.30
2018-07-05T15:42:07.865Z,1.50
2018-07-05T15:44:42.490Z,2.00
2018-07-05T15:47:16.453Z,1.35
2018-07-05T15:49:50.811Z,1.30
2018-07-05T15:52:25.027Z,1.20
2018-07-05T15:54:59.546Z,1.20
2018-07-05T15:57:33.912Z,1.20
2018-07-05T16:00:08.220Z,1.22
2018-07-05T16:02:42.584Z,1.40
2018-07-05T16:05:16.483Z,1.35
2018-07-05T16:07:51.084Z,1.42
2018-07-05T16:10:25.521Z,1.32
2018-07-05T16:13:00.167Z,1.30
2018-07-05T16:15:34.560Z,1.10
2018-07-05T16:18:08.723Z,1.40
2018-07-05T16:20:42.823Z,1.12
2018-07-05T16:23:18.150Z,1.27
2018-07-05T16:25:52.133Z,1.20
2018-07-05T16:28:26.491Z,1.17
2018-07-05T16:31:01.012Z,1.10
2018-07-05T16:33:35.441Z,1.25
2018-07-05T16:36:10.163Z,1.37
2018-07-05T16:38:44.705Z,1.37
2018-07-05T16:41:19.027Z,1.30
2018-07-05T16:43:52.995Z,1.00
2018-07-05T16:46:27.537Z,1.22
2018-07-05T16:49:01.860Z,1.15
2018-07-05T16:51:36.455Z,1.20
2018-07-05T16:54:10.763Z,1.07
2018-07-05T16:56:44.939Z,0.90
2018-07-05T16:59:19.359Z,1.20
2018-07-05T17:01:54.193Z,1.20
2018-07-05T17:04:28.713Z,1.25
2018-07-05T17:07:02.935Z,1.27
2018-07-05T17:09:37.604Z,1.35
2018-07-05T17:12:11.999Z,1.57
2018-07-05T17:14:46.565Z,1.47
2018-07-05T17:17:20.742Z,1.50
2018-07-05T17:19:55.216Z,1.20
2018-07-05T17:22:29.287Z,1.20
2018-07-05T17:25:03.728Z,1.45
2018-07-05T17:27:38.340Z,1.10
2018-07-05T17:30:13.104Z,1.37
2018-07-05T17:32:47.372Z,1.07
2018-07-05T17:35:21.921Z,1.22
2018-07-05T17:37:56.148Z,1.20
2018-07-05T17:40:30.719Z,1.05
2018-07-05T17:43:05.384Z,1.07
2018-07-05T17:45:40.324Z,1.20
2018-07-05T17:48:14.840Z,1.17
2018-07-05T17:50:48.999Z,1.20
2018-07-05T17:53:23.432Z,1.27
2018-07-05T17:55:58.243Z,1.35
2018-07-05T17:58:33.500Z,1.10
2018-07-05T18:01:08.842Z,1.40
2018-07-05T18:06:23.032Z,1.40
2018-07-05T18:08:57.244Z,1.30
2018-07-05T18:11:31.433Z,1.27
2018-07-05T18:14:06.040Z,1.30
2018-07-05T18:16:40.748Z,1.40
2018-07-05T18:19:14.799Z,1.32
2018-07-05T18:21:49.312Z,1.10
2018-07-05T18:24:23.549Z,1.20
2018-07-05T18:26:59.095Z,1.20
2018-07-05T18:29:33.483Z,1.35
2018-07-05T18:32:08.019Z,1.00
2018-07-05T18:34:42.252Z,1.40
2018-07-05T18:37:17.288Z,1.40
2018-07-05T18:39:51.524Z,1.20
2018-07-05T18:42:25.413Z,1.05
2018-07-05T18:44:59.551Z,1.30
2018-07-05T18:47:33.660Z,1.30
2018-07-05T18:50:07.972Z,1.22
2018-07-05T18:52:42.381Z,1.20
2018-07-05T18:55:16.984Z,1.27
2018-07-05T18:57:51.476Z,1.17
2018-07-05T19:00:25.656Z,1.30
2018-07-05T19:03:00.320Z,1.07
2018-07-05T19:05:34.711Z,1.10
2018-07-05T19:08:09.257Z,1.30
2018-07-05T19:10:43.766Z,1.27
2018-07-05T19:13:18.364Z,1.30
2018-07-05T19:15:52.827Z,1.10
2018-07-05T19:18:27.411Z,1.10
2018-07-05T19:21:01.704Z,1.10
2018-07-05T19:23:37.227Z,1.10
2018-07-05T19:26:11.962Z,0.98
2018-07-05T19:28:46.491Z,0.90
2018-07-05T19:31:21.098Z,1.10
2018-07-05T19:33:55.692Z,1.40
2018-07-05T19:36:30.151Z,1.10
2018-07-05T19:39:05.667Z,1.10
2018-07-05T19:41:40.217Z,1.13
2018-07-05T19:44:14.676Z,1.30
2018-07-05T19:46:48.956Z,1.20
2018-07-05T19:49:23.440Z,1.20
2018-07-05T19:51:58.012Z,1.10
2018-07-05T19:54:32.763Z,1.07
2018-07-05T19:57:07.184Z,1.20
2018-07-05T19:59:41.580Z,1.03
2018-07-05T20:02:16.052Z,1.23
2018-07-05T20:04:50.617Z,1.20
2018-07-05T20:07:24.781Z,1.20
2018-07-05T20:09:59.159Z,1.10
2018-07-05T20:12:33.940Z,1.30
2018-07-05T20:15:08.042Z,1.37
2018-07-05T20:17:42.352Z,1.40
2018-07-05T20:22:51.625Z,1.40
2018-07-05T20:25:25.681Z,1.30
2018-07-05T20:28:00.180Z,1.57
2018-07-05T20:30:34.768Z,1.43
2018-07-05T20:33:09.340Z,1.27
2018-07-05T20:35:43.909Z,1.40
2018-07-05T20:38:19.100Z,1.87
2018-07-05T20:40:53.753Z,1.57
2018-07-05T20:43:28.536Z,1.10
2018-07-05T20:46:02.927Z,1.20
2018-07-05T20:48:37.516Z,1.20
2018-07-05T20:51:12.002Z,1.40
2018-07-05T20:53:46.531Z,1.30
2018-07-05T20:56:20.984Z,1.20
2018-07-05T20:58:55.590Z,1.20
2018-07-05T21:01:29.748Z,1.33
2018-07-05T21:04:03.984Z,1.10
2018-07-05T21:06:38.425Z,1.10
2018-07-05T21:09:13.015Z,1.30
2018-07-05T21:11:47.387Z,1.40
2018-07-05T21:14:21.868Z,1.43
2018-07-05T21:16:55.956Z,1.40
2018-07-05T21:19:31.422Z,1.40
2018-07-05T21:22:05.811Z,1.50
2018-07-05T21:24:40.017Z,1.10
2018-07-05T21:27:14.448Z,1.33
2018-07-05T21:29:48.955Z,0.93
2018-07-05T21:32:22.776Z,1.30
2018-07-05T21:34:57.195Z,1.30
2018-07-05T21:37:31.512Z,1.50
2018-07-05T21:40:05.522Z,1.57
2018-07-05T21:42:43.845Z,1.30
2018-07-05T21:45:18.128Z,1.23
2018-07-05T21:47:52.492Z,1.50
2018-07-05T21:50:27.347Z,1.43
2018-07-05T21:53:01.666Z,1.20
2018-07-05T21:55:35.984Z,1.47
2018-07-05T21:58:10.638Z,1.43
2018-07-05T22:00:44.864Z,1.33
2018-07-05T22:03:19.060Z,1.40
2018-07-05T22:05:53.274Z,1.80
2018-07-05T22:08:27.584Z,1.20
2018-07-05T22:11:01.941Z,1.57
2018-07-05T22:13:36.452Z,1.50
2018-07-05T22:16:10.668Z,1.20
2018-07-05T22:18:50.308Z,1.30
2018-07-05T22:21:24.615Z,1.37
2018-07-05T22:24:04.039Z,1.37
2018-07-05T22:26:47.723Z,1.40
2018-07-05T22:29:27.629Z,1.40
2018-07-05T22:32:01.944Z,1.20
2018-07-05T22:34:36.347Z,1.40
2018-07-05T22:37:10.807Z,1.60
2018-07-05T22:39:45.291Z,1.40
2018-07-05T22:42:19.171Z,1.57
2018-07-05T22:44:53.687Z,1.30
2018-07-05T22:47:28.198Z,1.40
2018-07-05T22:50:02.124Z,1.60
2018-07-05T22:52:36.421Z,1.53
2018-07-05T22:55:10.748Z,1.40
2018-07-05T22:57:44.957Z,1.37
2018-07-05T23:00:19.533Z,1.40
2018-07-05T23:02:54.290Z,1.40
2018-07-05T23:05:28.497Z,1.60
2018-07-05T23:08:03.028Z,1.50
2018-07-05T23:10:37.480Z,1.40
2018-07-05T23:13:11.740Z,1.40
2018-07-05T23:15:46.568Z,1.40
2018-07-05T23:18:21.934Z,1.23
2018-07-05T23:20:56.132Z,1.40
2018-07-05T23:23:30.384Z,1.40
2018-07-05T23:26:04.967Z,1.50
2018-07-05T23:28:39.784Z,1.40
2018-07-05T23:31:14.141Z,1.40
2018-07-05T23:33:48.366Z,1.73
2018-07-05T23:36:23.400Z,1.50
2018-07-05T23:38:57.737Z,1.30
2018-07-05T23:41:32.214Z,1.60
2018-07-05T23:44:06.880Z,1.40
2018-07-05T23:46:40.819Z,1.60
2018-07-05T23:49:15.294Z,1.60
2018-07-05T23:51:50.000Z,1.37
2018-07-05T23:54:23.870Z,1.63
2018-07-05T23:56:58.473Z,1.70
2018-07-05T23:59:33.163Z,1.50
